createdAt,value
2023-02-24T00:02:00.029Z,5.20
2023-02-24T00:04:29.436Z,6.05
2023-02-24T00:06:56.057Z,6.03
2023-02-24T00:09:26.087Z,4.80
2023-02-24T00:11:59.255Z,4.60
2023-02-24T00:14:28.913Z,4.55
2023-02-24T00:16:55.655Z,2.90
2023-02-24T00:19:24.839Z,2.60
2023-02-24T00:21:52.005Z,2.95
2023-02-24T00:24:18.955Z,3.42
2023-02-24T00:26:45.979Z,3.50
2023-02-24T00:29:16.134Z,3.13
2023-02-24T00:31:43.319Z,2.70
2023-02-24T00:34:15.130Z,2.90
2023-02-24T00:36:41.849Z,2.83
2023-02-24T00:39:10.102Z,2.85
2023-02-24T00:41:44.663Z,2.97
2023-02-24T00:46:44.790Z,2.60
2023-02-24T00:49:19.607Z,2.33
2023-02-24T00:51:48.806Z,2.42
2023-02-24T00:54:16.850Z,2.50
2023-02-24T00:56:45.298Z,2.40
2023-02-24T00:59:14.434Z,2.50
2023-02-24T01:01:42.534Z,2.80
2023-02-24T01:04:12.088Z,2.35
2023-02-24T01:06:43.163Z,2.28
2023-02-24T01:09:12.222Z,2.28
2023-02-24T01:11:58.591Z,2.33
2023-02-24T01:14:29.299Z,2.45
2023-02-24T01:16:56.338Z,2.30
2023-02-24T01:19:25.539Z,2.05
2023-02-24T01:21:55.050Z,2.15
2023-02-24T01:24:23.755Z,2.50
2023-02-24T01:26:50.820Z,2.40
2023-02-24T01:29:17.552Z,2.58
2023-02-24T01:31:44.476Z,2.35
2023-02-24T01:34:13.026Z,2.90
2023-02-24T01:36:43.100Z,2.47
2023-02-24T01:39:11.187Z,2.58
2023-02-24T01:41:43.917Z,2.42
2023-02-24T01:44:14.261Z,2.30
2023-02-24T01:46:45.703Z,2.10
2023-02-24T01:49:29.693Z,2.40
2023-02-24T01:52:02.005Z,2.63
2023-02-24T01:54:42.926Z,2.78
2023-02-24T01:57:12.388Z,2.50
2023-02-24T01:59:39.176Z,2.58
2023-02-24T02:02:08.057Z,2.60
2023-02-24T02:04:59.391Z,2.05
2023-02-24T02:07:28.077Z,2.53
2023-02-24T02:09:55.756Z,2.20
2023-02-24T02:12:24.227Z,2.33
2023-02-24T02:14:55.914Z,2.63
2023-02-24T02:17:36.855Z,2.30
2023-02-24T02:20:19.659Z,2.28
2023-02-24T02:23:06.587Z,2.55
2023-02-24T02:25:46.094Z,2.65
2023-02-24T02:28:34.080Z,2.50
2023-02-24T02:31:25.996Z,2.70
2023-02-24T02:34:09.657Z,2.45
2023-02-24T02:36:49.012Z,3.20
2023-02-24T02:39:34.823Z,2.53
2023-02-24T02:42:14.883Z,1.98
2023-02-24T02:45:07.722Z,2.30
2023-02-24T02:47:54.490Z,2.58
2023-02-24T02:50:48.158Z,2.67
2023-02-24T02:53:24.587Z,2.47
2023-02-24T02:56:09.823Z,2.55
2023-02-24T02:58:40.623Z,2.60
2023-02-24T03:01:09.631Z,2.50
2023-02-24T03:03:40.975Z,3.05
2023-02-24T03:06:16.318Z,3.30
2023-02-24T03:08:52.458Z,2.72
2023-02-24T03:11:20.779Z,2.60
2023-02-24T03:13:49.734Z,2.70
2023-02-24T03:16:18.161Z,2.97
2023-02-24T03:18:53.022Z,2.78
2023-02-24T03:21:34.839Z,2.85
2023-02-24T03:24:05.604Z,3.25
2023-02-24T03:26:49.996Z,2.55
2023-02-24T03:29:52.655Z,3.15
2023-02-24T03:32:43.769Z,2.75
2023-02-24T03:35:17.199Z,2.90
2023-02-24T03:37:45.013Z,2.80
2023-02-24T03:40:16.084Z,2.97
2023-02-24T03:42:47.277Z,3.28
2023-02-24T03:45:16.305Z,3.00
2023-02-24T03:47:46.515Z,2.85
2023-02-24T03:50:22.007Z,3.08
2023-02-24T03:52:59.048Z,3.10
2023-02-24T03:56:15.906Z,2.80
2023-02-24T03:59:13.697Z,3.22
2023-02-24T04:01:46.836Z,2.90
2023-02-24T04:04:42.211Z,3.47
2023-02-24T04:07:13.470Z,3.17
2023-02-24T04:09:48.060Z,3.20
2023-02-24T04:15:00.511Z,3.28
2023-02-24T04:17:43.514Z,3.47
2023-02-24T04:20:16.312Z,3.10
2023-02-24T04:22:48.849Z,3.20
2023-02-24T04:25:24.809Z,3.20
2023-02-24T04:27:54.522Z,2.88
2023-02-24T04:30:23.887Z,2.67
2023-02-24T04:32:50.689Z,2.90
2023-02-24T04:35:21.134Z,3.03
2023-02-24T04:37:47.782Z,3.33
2023-02-24T04:40:17.570Z,2.75
2023-02-24T04:42:48.914Z,3.30
2023-02-24T04:45:20.248Z,3.22
2023-02-24T04:47:51.111Z,3.17
2023-02-24T04:50:25.961Z,2.67
2023-02-24T04:52:57.534Z,2.75
2023-02-24T04:55:29.391Z,2.95
2023-02-24T04:57:57.248Z,3.35
2023-02-24T05:00:26.475Z,3.00
2023-02-24T05:02:56.392Z,3.28
2023-02-24T05:05:25.704Z,2.63
2023-02-24T05:07:57.705Z,2.53
2023-02-24T05:10:28.054Z,2.92
2023-02-24T05:12:58.212Z,3.13
2023-02-24T05:15:34.511Z,3.22
2023-02-24T05:18:07.409Z,3.05
2023-02-24T05:20:58.794Z,3.05
2023-02-24T05:23:34.847Z,3.35
2023-02-24T05:26:04.081Z,3.15
2023-02-24T05:28:33.444Z,2.83
2023-02-24T05:31:15.311Z,2.53
2023-02-24T05:33:46.674Z,2.67
2023-02-24T05:36:17.196Z,2.47
2023-02-24T05:38:45.532Z,3.35
2023-02-24T05:41:16.888Z,2.90
2023-02-24T05:43:54.868Z,3.53
2023-02-24T05:46:28.247Z,3.13
2023-02-24T05:48:59.323Z,3.20
2023-02-24T05:51:28.098Z,2.85
2023-02-24T05:53:55.596Z,2.65
2023-02-24T05:56:23.397Z,3.17
2023-02-24T05:59:01.766Z,2.45
2023-02-24T06:01:33.625Z,2.80
2023-02-24T06:04:05.807Z,2.92
2023-02-24T06:06:35.149Z,2.50
2023-02-24T06:09:07.943Z,2.22
2023-02-24T06:11:35.014Z,2.38
2023-02-24T06:14:02.345Z,2.10
2023-02-24T06:16:30.041Z,2.35
2023-02-24T06:18:57.928Z,1.73
2023-02-24T06:21:29.127Z,1.98
2023-02-24T06:23:57.725Z,2.42
2023-02-24T06:26:29.757Z,2.03
2023-02-24T06:29:00.210Z,1.60
2023-02-24T06:31:27.781Z,1.73
2023-02-24T06:33:54.518Z,1.65
2023-02-24T06:36:21.868Z,1.50
2023-02-24T06:38:52.541Z,1.83
2023-02-24T06:41:19.384Z,1.35
2023-02-24T06:43:48.264Z,1.65
2023-02-24T06:46:16.479Z,1.58
2023-02-24T06:48:43.238Z,1.60
2023-02-24T06:51:16.261Z,1.02
2023-02-24T06:53:44.031Z,1.50
2023-02-24T06:56:15.885Z,1.50
2023-02-24T06:58:53.635Z,1.13
2023-02-24T07:01:25.650Z,1.55
2023-02-24T07:04:09.226Z,1.13
2023-02-24T07:06:38.385Z,1.33
2023-02-24T07:09:08.776Z,1.42
2023-02-24T07:11:36.821Z,1.30
2023-02-24T07:14:05.705Z,1.25
2023-02-24T07:16:34.561Z,2.08
2023-02-24T07:19:11.008Z,2.05
2023-02-24T07:21:43.373Z,1.42
2023-02-24T07:24:13.396Z,1.35
2023-02-24T07:26:41.707Z,1.77
2023-02-24T07:29:11.560Z,1.60
2023-02-24T07:31:39.430Z,0.80
2023-02-24T07:34:08.798Z,1.33
2023-02-24T07:36:49.134Z,0.73
2023-02-24T07:39:17.297Z,0.98
2023-02-24T07:41:49.907Z,1.40
2023-02-24T07:44:18.922Z,1.13
2023-02-24T07:46:49.134Z,1.25
2023-02-24T07:49:23.348Z,1.55
2023-02-24T07:51:53.000Z,1.33
2023-02-24T07:54:21.539Z,2.08
2023-02-24T07:56:56.729Z,1.45
2023-02-24T07:59:35.110Z,1.40
2023-02-24T08:02:04.956Z,1.40
2023-02-24T08:04:32.930Z,1.00
2023-02-24T08:07:03.368Z,1.02
2023-02-24T08:09:44.843Z,1.67
2023-02-24T08:12:21.708Z,1.08
2023-02-24T08:14:52.120Z,1.67
2023-02-24T08:17:20.917Z,0.95
2023-02-24T08:19:49.478Z,0.98
2023-02-24T08:22:20.531Z,1.17
2023-02-24T08:25:00.621Z,1.20
2023-02-24T08:27:31.991Z,1.80
2023-02-24T08:30:01.292Z,1.88
2023-02-24T08:32:43.549Z,1.80
2023-02-24T08:35:15.380Z,1.63
2023-02-24T08:37:47.434Z,1.77
2023-02-24T08:40:33.627Z,1.45
2023-02-24T08:43:16.202Z,1.60
2023-02-24T08:45:56.601Z,1.60
2023-02-24T08:48:37.347Z,1.92
2023-02-24T08:51:18.030Z,1.23
2023-02-24T08:53:46.932Z,1.58
2023-02-24T08:56:24.002Z,1.95
2023-02-24T08:58:56.992Z,1.02
2023-02-24T09:01:37.179Z,1.60
2023-02-24T09:04:08.179Z,1.85
2023-02-24T09:06:43.860Z,1.48
2023-02-24T09:09:17.431Z,1.60
2023-02-24T09:11:56.328Z,1.35
2023-02-24T09:14:37.834Z,1.25
2023-02-24T09:17:10.992Z,1.50
2023-02-24T09:19:51.259Z,1.65
2023-02-24T09:22:31.339Z,1.38
2023-02-24T09:25:19.181Z,1.83
2023-02-24T09:27:52.153Z,1.80
2023-02-24T09:30:37.973Z,1.90
2023-02-24T09:33:22.210Z,1.60
2023-02-24T09:36:03.994Z,2.40
2023-02-24T09:38:57.051Z,1.75
2023-02-24T09:41:53.732Z,2.33
2023-02-24T09:44:37.436Z,1.88
2023-02-24T09:47:57.115Z,2.28
2023-02-24T09:51:02.657Z,1.63
2023-02-24T09:53:52.616Z,1.13
2023-02-24T09:56:44.831Z,1.70
2023-02-24T09:59:36.390Z,1.35
2023-02-24T10:02:14.658Z,2.53
2023-02-24T10:05:07.034Z,2.08
2023-02-24T10:07:40.233Z,2.42
2023-02-24T10:10:29.178Z,2.15
2023-02-24T10:12:58.958Z,2.00
2023-02-24T10:15:58.335Z,2.60
2023-02-24T10:18:30.454Z,2.60
2023-02-24T10:21:30.769Z,2.70
2023-02-24T10:24:08.157Z,2.58
2023-02-24T10:26:59.659Z,2.28
2023-02-24T10:29:43.403Z,2.08
2023-02-24T10:32:35.626Z,2.35
2023-02-24T10:35:02.870Z,3.25
2023-02-24T10:37:30.447Z,2.30
2023-02-24T10:40:09.495Z,2.67
2023-02-24T10:42:44.432Z,2.85
2023-02-24T10:45:20.683Z,2.20
2023-02-24T10:47:57.488Z,2.30
2023-02-24T10:50:54.951Z,2.05
2023-02-24T10:53:28.495Z,2.83
2023-02-24T10:56:24.671Z,1.88
2023-02-24T10:59:22.774Z,2.47
2023-02-24T11:02:32.496Z,2.47
2023-02-24T11:05:24.936Z,2.88
2023-02-24T11:08:07.321Z,2.00
2023-02-24T11:10:52.871Z,2.17
2023-02-24T11:13:40.228Z,2.05
2023-02-24T11:16:28.144Z,2.15
2023-02-24T11:18:55.764Z,2.63
2023-02-24T11:21:26.213Z,2.53
2023-02-24T11:23:56.894Z,3.10
2023-02-24T11:26:28.280Z,2.92
2023-02-24T11:29:32.046Z,2.90
2023-02-24T11:32:22.819Z,2.22
2023-02-24T11:34:49.759Z,2.63
2023-02-24T11:37:44.812Z,3.30
2023-02-24T11:40:43.038Z,2.72
2023-02-24T11:43:20.626Z,2.33
2023-02-24T11:46:05.936Z,2.90
2023-02-24T11:48:43.793Z,2.83
2023-02-24T11:51:13.585Z,2.70
2023-02-24T11:53:58.866Z,2.90
2023-02-24T11:56:36.266Z,3.05
2023-02-24T11:59:39.719Z,2.47
2023-02-24T12:02:30.219Z,2.70
2023-02-24T12:05:03.498Z,2.67
2023-02-24T12:07:38.961Z,2.22
2023-02-24T12:10:17.230Z,2.05
2023-02-24T12:13:25.248Z,2.53
2023-02-24T12:15:56.488Z,2.53
2023-02-24T12:18:44.837Z,2.75
2023-02-24T12:21:43.675Z,3.10
2023-02-24T12:24:14.612Z,3.30
2023-02-24T12:27:09.240Z,3.53
2023-02-24T12:30:22.755Z,3.22
2023-02-24T12:33:24.998Z,3.65
2023-02-24T12:36:15.839Z,3.30
2023-02-24T12:39:16.024Z,3.75
2023-02-24T12:42:02.057Z,3.28
2023-02-24T12:44:57.492Z,3.33
2023-02-24T12:47:39.657Z,3.88
2023-02-24T12:50:19.721Z,3.25
2023-02-24T12:52:54.819Z,3.75
2023-02-24T12:55:39.993Z,3.63
2023-02-24T12:58:26.532Z,3.90
2023-02-24T13:01:12.449Z,4.18
2023-02-24T13:04:04.586Z,4.07
2023-02-24T13:06:58.512Z,3.80
2023-02-24T13:09:32.653Z,2.85
2023-02-24T13:12:17.157Z,2.83
2023-02-24T13:14:45.034Z,3.10
2023-02-24T13:17:11.775Z,2.50
2023-02-24T13:19:40.101Z,2.38
2023-02-24T13:22:13.773Z,3.13
2023-02-24T13:24:56.072Z,3.40
2023-02-24T13:27:33.717Z,1.80
2023-02-24T13:30:12.281Z,1.67
2023-02-24T13:32:45.695Z,3.22
2023-02-24T13:35:15.452Z,3.72
2023-02-24T13:37:44.900Z,2.13
2023-02-24T13:40:23.807Z,2.88
2023-02-24T13:42:56.854Z,2.80
2023-02-24T13:45:39.712Z,1.73
2023-02-24T13:48:18.534Z,2.17
2023-02-24T13:50:54.407Z,2.47
2023-02-24T13:53:36.308Z,2.85
2023-02-24T13:56:14.999Z,2.40
2023-02-24T13:59:05.200Z,2.72
2023-02-24T14:01:52.395Z,3.45
2023-02-24T14:04:33.535Z,2.20
2023-02-24T14:07:04.550Z,2.60
2023-02-24T14:09:39.729Z,1.95
2023-02-24T14:12:19.094Z,2.47
2023-02-24T14:14:47.592Z,1.88
2023-02-24T14:17:28.452Z,1.65
2023-02-24T14:20:19.098Z,1.33
2023-02-24T14:22:53.218Z,2.33
2023-02-24T14:25:21.981Z,0.85
2023-02-24T14:27:51.760Z,2.08
2023-02-24T14:30:36.167Z,1.23
2023-02-24T14:33:04.733Z,1.80
2023-02-24T14:35:42.158Z,2.28
2023-02-24T14:38:40.639Z,1.20
2023-02-24T14:41:19.969Z,2.05
2023-02-24T14:43:46.807Z,1.50
2023-02-24T14:46:13.908Z,2.28
2023-02-24T14:48:41.314Z,1.38
2023-02-24T14:51:17.833Z,2.72
2023-02-24T14:53:57.811Z,2.78
2023-02-24T14:56:32.339Z,2.22
2023-02-24T14:59:08.486Z,2.92
2023-02-24T15:01:42.838Z,2.90
2023-02-24T15:06:43.788Z,3.00
2023-02-24T15:09:21.129Z,2.75
2023-02-24T15:11:49.719Z,2.60
2023-02-24T15:14:26.040Z,1.50
2023-02-24T15:17:16.757Z,1.75
2023-02-24T15:19:47.126Z,2.85
2023-02-24T15:22:33.652Z,3.53
2023-02-24T15:25:18.200Z,2.60
2023-02-24T15:27:53.888Z,3.67
2023-02-24T15:30:30.433Z,2.10
2023-02-24T15:33:07.065Z,1.90
2023-02-24T15:35:37.652Z,2.40
2023-02-24T15:38:04.560Z,1.95
2023-02-24T15:40:31.721Z,2.03
2023-02-24T15:43:10.429Z,1.52
2023-02-24T15:45:39.267Z,1.50
2023-02-24T15:48:24.969Z,0.65
2023-02-24T15:50:51.736Z,1.90
2023-02-24T15:53:18.550Z,1.90
2023-02-24T15:55:46.878Z,1.10
2023-02-24T15:58:20.123Z,1.08
2023-02-24T16:00:46.893Z,1.25
2023-02-24T16:03:13.773Z,1.48
2023-02-24T16:05:40.513Z,1.17
2023-02-24T16:08:13.493Z,0.70
2023-02-24T16:10:40.806Z,1.15
2023-02-24T16:13:17.447Z,1.55
2023-02-24T16:15:45.122Z,1.13
2023-02-24T16:18:21.638Z,0.88
2023-02-24T16:20:56.569Z,1.73
2023-02-24T16:23:25.472Z,1.73
2023-02-24T16:25:56.159Z,1.80
2023-02-24T16:28:23.590Z,1.50
2023-02-24T16:30:51.574Z,0.65
2023-02-24T16:33:21.042Z,2.38
2023-02-24T16:35:47.943Z,2.95
2023-02-24T16:38:16.214Z,2.40
2023-02-24T16:40:46.616Z,1.48
2023-02-24T16:43:13.420Z,3.17
2023-02-24T16:45:41.657Z,3.08
2023-02-24T16:48:23.569Z,3.83
2023-02-24T16:50:51.288Z,7.97
2023-02-24T16:53:20.887Z,8.80
2023-02-24T16:55:47.629Z,2.03
2023-02-24T16:58:14.561Z,2.20
2023-02-24T17:00:43.287Z,5.53
2023-02-24T17:03:25.088Z,2.25
2023-02-24T17:05:52.450Z,7.22
2023-02-24T17:08:19.547Z,6.72
2023-02-24T17:10:47.234Z,6.50
2023-02-24T17:13:16.456Z,4.00
2023-02-24T17:15:43.179Z,2.83
2023-02-24T17:18:10.196Z,5.05
2023-02-24T17:20:38.679Z,4.93
2023-02-24T17:23:05.835Z,3.75
2023-02-24T17:25:33.716Z,4.30
2023-02-24T17:28:00.673Z,1.90
2023-02-24T17:30:30.694Z,1.40
2023-02-24T17:32:57.652Z,2.20
2023-02-24T17:35:24.893Z,2.58
2023-02-24T17:37:51.794Z,1.60
2023-02-24T17:40:18.964Z,2.67
2023-02-24T17:42:45.671Z,2.70
2023-02-24T17:45:13.211Z,2.85
2023-02-24T17:47:40.350Z,2.30
2023-02-24T17:50:08.955Z,2.17
2023-02-24T17:52:40.316Z,1.50
2023-02-24T17:55:08.046Z,1.98
2023-02-24T17:57:35.879Z,1.77
2023-02-24T18:00:04.604Z,2.10
2023-02-24T18:02:31.688Z,1.90
2023-02-24T18:04:58.485Z,1.80
2023-02-24T18:07:25.274Z,2.83
2023-02-24T18:09:52.232Z,1.80
2023-02-24T18:12:20.816Z,2.65
2023-02-24T18:14:56.232Z,2.17
2023-02-24T18:17:29.401Z,2.63
2023-02-24T18:19:56.199Z,2.63
2023-02-24T18:22:22.887Z,3.22
2023-02-24T18:24:49.674Z,2.92
2023-02-24T18:27:16.882Z,3.00
2023-02-24T18:29:44.146Z,4.20
2023-02-24T18:32:11.218Z,5.10
2023-02-24T18:34:38.029Z,3.92
2023-02-24T18:37:04.733Z,3.83
2023-02-24T18:39:31.437Z,7.03
2023-02-24T18:41:59.623Z,2.95
2023-02-24T18:44:26.694Z,2.67
2023-02-24T18:46:53.412Z,18.02
2023-02-24T18:49:20.135Z,2.97
2023-02-24T18:51:49.073Z,16.38
2023-02-24T18:54:16.524Z,8.45
2023-02-24T18:56:43.476Z,3.30
2023-02-24T18:59:10.166Z,3.17
2023-02-24T19:01:39.120Z,6.50
2023-02-24T19:04:07.642Z,6.03
2023-02-24T19:06:35.329Z,3.20
2023-02-24T19:09:10.810Z,3.25
2023-02-24T19:11:39.392Z,4.18
2023-02-24T19:14:11.804Z,4.03
2023-02-24T19:16:38.721Z,2.90
2023-02-24T19:19:05.583Z,4.35
2023-02-24T19:21:33.413Z,3.85
2023-02-24T19:24:08.111Z,4.18
2023-02-24T19:26:35.390Z,3.78
2023-02-24T19:29:03.862Z,4.00
2023-02-24T19:31:32.570Z,4.28
2023-02-24T19:34:02.391Z,4.95
2023-02-24T19:36:30.646Z,6.68
2023-02-24T19:38:57.485Z,3.85
2023-02-24T19:41:24.664Z,4.38
2023-02-24T19:43:51.534Z,4.85
2023-02-24T19:46:18.772Z,3.45
2023-02-24T19:48:46.016Z,3.85
2023-02-24T19:51:14.270Z,4.88
2023-02-24T19:53:41.118Z,3.10
2023-02-24T19:56:08.234Z,4.13
2023-02-24T19:58:35.991Z,4.70
2023-02-24T20:01:09.592Z,4.85
2023-02-24T20:03:39.446Z,6.40
2023-02-24T20:06:06.779Z,4.00
2023-02-24T20:08:35.617Z,7.00
2023-02-24T20:11:04.245Z,12.10
2023-02-24T20:13:31.564Z,11.00
2023-02-24T20:16:06.172Z,7.75
2023-02-24T20:21:00.491Z,4.13
2023-02-24T20:23:27.996Z,4.57
2023-02-24T20:25:56.309Z,13.40
2023-02-24T20:28:23.138Z,10.02
2023-02-24T20:30:50.943Z,12.65
2023-02-24T20:33:18.513Z,15.23
2023-02-24T20:35:45.161Z,11.85
2023-02-24T20:38:12.803Z,6.15
2023-02-24T20:40:39.772Z,8.63
2023-02-24T20:43:08.491Z,11.15
2023-02-24T20:45:38.858Z,11.00
2023-02-24T20:48:06.624Z,11.18
2023-02-24T20:50:34.330Z,9.48
2023-02-24T20:53:03.391Z,6.03
2023-02-24T20:55:30.712Z,12.90
2023-02-24T20:57:57.492Z,3.60
2023-02-24T21:00:24.285Z,9.73
2023-02-24T21:02:50.931Z,7.70
2023-02-24T21:05:24.192Z,7.72
2023-02-24T21:07:51.359Z,12.38
2023-02-24T21:10:19.615Z,14.75
2023-02-24T21:12:47.217Z,7.55
2023-02-24T21:15:14.546Z,10.32
2023-02-24T21:17:41.344Z,10.65
2023-02-24T21:20:11.169Z,12.27
2023-02-24T21:22:40.316Z,7.25
2023-02-24T21:25:10.558Z,7.32
2023-02-24T21:27:38.302Z,3.85
2023-02-24T21:30:06.893Z,3.05
2023-02-24T21:32:33.893Z,7.38
2023-02-24T21:35:02.075Z,6.05
2023-02-24T21:37:28.941Z,12.63
2023-02-24T21:39:55.550Z,5.53
2023-02-24T21:42:22.461Z,4.25
2023-02-24T21:44:51.118Z,12.27
2023-02-24T21:47:18.927Z,4.72
2023-02-24T21:49:46.275Z,11.82
2023-02-24T21:52:13.214Z,8.13
2023-02-24T21:54:40.255Z,3.33
2023-02-24T21:57:07.241Z,2.33
2023-02-24T21:59:34.350Z,1.73
2023-02-24T22:02:01.073Z,2.53
2023-02-24T22:04:28.105Z,2.83
2023-02-24T22:06:54.767Z,1.60
2023-02-24T22:09:21.459Z,7.03
2023-02-24T22:11:49.470Z,4.10
2023-02-24T22:14:16.718Z,3.70
2023-02-24T22:16:44.513Z,2.60
2023-02-24T22:19:11.858Z,2.15
2023-02-24T22:21:39.528Z,1.95
2023-02-24T22:24:06.531Z,1.50
2023-02-24T22:26:33.695Z,1.83
2023-02-24T22:29:01.257Z,1.58
2023-02-24T22:31:31.349Z,2.10
2023-02-24T22:33:58.704Z,1.17
2023-02-24T22:36:31.037Z,1.85
2023-02-24T22:38:59.131Z,1.70
2023-02-24T22:41:29.545Z,1.27
2023-02-24T22:43:56.154Z,1.65
2023-02-24T22:46:26.138Z,1.73
2023-02-24T22:48:53.445Z,1.40
2023-02-24T22:51:20.120Z,1.83
2023-02-24T22:53:49.028Z,1.63
2023-02-24T22:56:19.427Z,1.85
2023-02-24T22:58:46.437Z,1.98
2023-02-24T23:01:16.532Z,1.50
2023-02-24T23:03:45.913Z,2.13
2023-02-24T23:06:15.654Z,1.42
2023-02-24T23:08:43.980Z,1.45
2023-02-24T23:11:12.685Z,1.40
2023-02-24T23:13:41.358Z,1.92
